createdAt,value
2018-10-03T00:08:26.003Z,6.73
2018-10-03T00:19:24.460Z,6.72
2018-10-03T00:30:27.130Z,6.91
2018-10-03T00:41:12.327Z,6.78
2018-10-03T00:52:13.657Z,6.83
2018-10-03T01:03:13.263Z,6.65
2018-10-03T01:14:15.296Z,6.68
2018-10-03T01:25:17.384Z,6.83
2018-10-03T01:36:19.716Z,7.12
2018-10-03T01:47:20.366Z,7.41
2018-10-03T01:58:20.815Z,7.20
2018-10-03T02:09:20.143Z,7.23
2018-10-03T02:20:21.295Z,7.24
2018-10-03T02:31:19.171Z,7.44
2018-10-03T02:42:20.471Z,7.31
2018-10-03T02:53:17.516Z,7.49
2018-10-03T03:04:19.647Z,7.53
2018-10-03T03:15:20.016Z,7.56
2018-10-03T03:26:18.990Z,7.47
2018-10-03T03:37:21.092Z,7.41
2018-10-03T03:48:20.339Z,7.19
2018-10-03T03:59:16.386Z,7.06
2018-10-03T04:10:18.731Z,6.86
2018-10-03T04:21:20.548Z,6.78
2018-10-03T04:32:23.005Z,6.54
2018-10-03T04:43:20.083Z,6.48
2018-10-03T04:54:20.112Z,6.26
2018-10-03T05:05:19.623Z,6.29
2018-10-03T05:16:18.093Z,6.29
2018-10-03T05:27:18.556Z,6.30
2018-10-03T05:38:21.043Z,6.37
2018-10-03T05:49:21.787Z,6.50
2018-10-03T06:00:22.126Z,6.81
2018-10-03T06:11:21.530Z,7.20
2018-10-03T06:22:17.108Z,7.56
2018-10-03T06:33:17.933Z,7.91
2018-10-03T06:44:19.900Z,8.25
2018-10-03T06:55:17.620Z,8.54
2018-10-03T07:06:16.662Z,8.76
2018-10-03T07:17:13.642Z,9.45
2018-10-03T07:28:10.228Z,9.85
2018-10-03T07:39:09.798Z,10.69
2018-10-03T07:50:07.268Z,10.62
2018-10-03T08:01:07.497Z,11.03
2018-10-03T08:12:07.437Z,11.49
2018-10-03T08:23:02.950Z,11.61
2018-10-03T08:33:50.136Z,11.75
2018-10-03T08:44:50.814Z,12.13
2018-10-03T08:55:48.968Z,12.42
2018-10-03T09:06:49.974Z,12.05
2018-10-03T09:17:48.752Z,12.06
2018-10-03T09:28:50.262Z,12.56
2018-10-03T09:39:49.307Z,12.70
2018-10-03T09:50:49.718Z,13.00
2018-10-03T10:01:50.184Z,13.50
2018-10-03T10:12:45.613Z,13.76
2018-10-03T10:23:43.950Z,13.87
2018-10-03T10:34:44.163Z,14.23
2018-10-03T10:45:45.172Z,14.35
2018-10-03T10:56:44.703Z,14.68
2018-10-03T11:07:45.572Z,14.91
2018-10-03T11:18:44.644Z,14.95
2018-10-03T11:29:39.083Z,15.52
2018-10-03T11:40:38.033Z,16.15
2018-10-03T11:51:35.343Z,16.38
2018-10-03T12:02:35.311Z,16.41
2018-10-03T12:13:34.173Z,15.92
2018-10-03T12:24:34.193Z,16.38
2018-10-03T12:35:30.498Z,16.29
2018-10-03T12:46:22.213Z,16.48
2018-10-03T12:57:11.093Z,17.60
2018-10-03T13:08:07.406Z,18.99
2018-10-03T13:18:57.248Z,18.62
2018-10-03T13:29:55.648Z,20.46
2018-10-03T13:40:55.022Z,19.71
2018-10-03T13:51:52.510Z,20.19
2018-10-03T14:02:46.436Z,18.67
2018-10-03T14:13:26.433Z,17.69
2018-10-03T14:24:19.117Z,17.25
2018-10-03T14:35:11.638Z,17.38
2018-10-03T14:46:02.054Z,16.45
2018-10-03T14:56:56.838Z,16.30
2018-10-03T15:07:52.616Z,15.81
2018-10-03T15:18:48.896Z,15.35
2018-10-03T15:29:38.173Z,15.03
2018-10-03T15:40:32.554Z,14.68
2018-10-03T15:51:27.738Z,14.53
2018-10-03T16:02:25.046Z,14.36
2018-10-03T16:13:21.107Z,14.14
2018-10-03T16:24:19.668Z,13.87
2018-10-03T16:35:19.399Z,13.56
2018-10-03T16:46:11.120Z,13.58
2018-10-03T16:57:04.583Z,13.40
2018-10-03T17:08:03.501Z,13.43
2018-10-03T17:19:02.154Z,13.32
2018-10-03T17:29:59.063Z,13.11
2018-10-03T17:40:59.143Z,12.89
2018-10-03T17:51:59.853Z,12.82
2018-10-03T18:02:58.890Z,12.59
2018-10-03T18:13:57.880Z,12.34
2018-10-03T18:24:55.145Z,12.33
2018-10-03T18:35:54.197Z,12.60
2018-10-03T18:46:55.396Z,12.19
2018-10-03T18:57:56.848Z,12.02
2018-10-03T19:08:55.291Z,12.00
2018-10-03T19:19:56.099Z,12.00
2018-10-03T19:30:54.920Z,12.05
2018-10-03T19:41:45.626Z,11.64
2018-10-03T19:52:45.985Z,11.29
2018-10-03T20:03:38.357Z,11.59
2018-10-03T20:14:34.118Z,11.49
2018-10-03T20:25:33.268Z,11.35
2018-10-03T20:36:32.329Z,11.35
2018-10-03T20:47:31.879Z,11.28
2018-10-03T20:58:27.876Z,11.02
2018-10-03T21:09:29.590Z,10.74
2018-10-03T21:20:28.671Z,10.59
2018-10-03T21:31:31.102Z,10.44
2018-10-03T21:42:33.253Z,10.26
2018-10-03T21:53:36.648Z,10.23
2018-10-03T22:04:47.027Z,10.06
2018-10-03T22:15:49.865Z,9.97
2018-10-03T22:26:48.945Z,9.90
2018-10-03T22:37:47.899Z,9.88
2018-10-03T22:48:48.591Z,10.03
2018-10-03T22:59:52.425Z,9.93
2018-10-03T23:10:52.403Z,9.74
2018-10-03T23:21:52.734Z,9.61
2018-10-03T23:32:52.390Z,9.40
2018-10-03T23:43:51.874Z,9.35
2018-10-03T23:54:53.111Z,9.22
